Bauer, Utah
Current Conditions -  °F | °C
As of 8:54 AM on Monday 24 Nov 2014 (Local Time) from KPVU Reporting Station
Rain Showers Rain Showers  
Wind Chill: 26°   Ceiling: 7500
Heat Index: 36°   Visibility: 10mi
Dew Point: 25°   Wind: 16mph
Humidity: 65%   Direction: 310°NW
Pressure: 30.27"   Gusts: 24mph
Location:  40.2688°N, 112.37°W
Report Text: KPVU 241554Z 31014G21KT 10SM VCSH BKN075 02/M04 A3027
Loading
Personal Weather Stations






























Interactive Weather Map New forecast layout! Learn more

10-Day Weather Forecast

Advertisements
Track Severe Weather on mobile